Time;durP1;ratioP1;P1;durP2;ratioP2;P2;SDS_P1;SDS_P2;PMS_P1;PMS_P2;Temp;Humidity;BMP_temperature;BMP_pressure;BME280_temperature;BME280_humidity;BME280_pressure;Samples;Min_cycle;Max_cycle;Signal;HPM_P1;HPM_P2
2023/06/06 00:02:03;;;;;;;6.97;4.00;;;;;;;13.57;75.44;101962.16;5072801;28;20039;-89
2023/06/06 00:04:29;;;;;;;9.23;4.60;;;;;;;13.54;75.25;101962.16;5073157;28;20108;-87
2023/06/06 00:06:54;;;;;;;7.80;3.78;;;;;;;13.54;74.64;101965.66;5072041;28;20119;-88
2023/06/06 00:09:20;;;;;;;7.27;3.77;;;;;;;13.48;77.26;101960.50;5070623;28;20650;-88
2023/06/06 00:11:46;;;;;;;9.83;5.00;;;;;;;13.52;75.00;101956.09;5072371;28;20388;-88
2023/06/06 00:14:12;;;;;;;11.10;4.93;;;;;;;13.39;76.99;101955.34;5072898;28;20476;-89
2023/06/06 00:16:40;;;;;;;8.70;4.45;;;;;;;13.35;76.51;101957.09;5054947;28;20032;-88
2023/06/06 00:19:06;;;;;;;9.32;5.05;;;;;;;13.29;77.34;101954.53;5072676;28;20036;-88
2023/06/06 00:21:32;;;;;;;8.10;4.20;;;;;;;13.26;75.42;101955.44;5072264;28;20025;-87
2023/06/06 00:23:59;;;;;;;7.43;4.00;;;;;;;13.22;77.24;101956.38;5073403;28;20099;-88
2023/06/06 00:26:26;;;;;;;6.63;3.80;;;;;;;13.22;75.78;101955.47;5073207;28;20416;-88
2023/06/06 00:28:51;;;;;;;8.75;4.00;;;;;;;13.16;77.99;101958.16;5072051;28;20032;-88
2023/06/06 00:31:16;;;;;;;6.00;3.70;;;;;;;13.17;75.96;101954.69;5072368;28;20036;-89
2023/06/06 00:33:43;;;;;;;8.27;4.33;;;;;;;13.09;78.36;101957.34;5072127;28;20020;-87
2023/06/06 00:36:08;;;;;;;8.93;4.45;;;;;;;13.05;77.22;101956.50;5072095;28;20524;-88
2023/06/06 00:38:33;;;;;;;9.40;4.43;;;;;;;13.01;77.05;101956.50;5072538;28;20055;-88
2023/06/06 00:40:59;;;;;;;12.57;5.10;;;;;;;12.93;77.79;101956.59;5072553;28;20036;-87
2023/06/06 00:43:24;;;;;;;8.93;4.70;;;;;;;12.90;76.53;101951.41;5071679;28;20029;-87
2023/06/06 00:45:50;;;;;;;9.47;5.00;;;;;;;12.87;77.17;101959.22;5072537;28;20636;-87
2023/06/06 00:48:17;;;;;;;8.10;4.25;;;;;;;12.87;77.27;101962.72;5072936;28;20315;-88
2023/06/06 00:50:42;;;;;;;9.80;4.93;;;;;;;12.85;78.71;101966.19;5071651;28;20024;-87
2023/06/06 00:53:09;;;;;;;8.17;4.37;;;;;;;12.82;77.05;101967.06;5073004;28;20097;-88
2023/06/06 00:55:35;;;;;;;9.68;4.75;;;;;;;12.75;79.22;101952.38;5072689;28;20021;-88
2023/06/06 00:58:01;;;;;;;10.85;5.05;;;;;;;12.71;78.38;101958.47;5072393;28;20032;-88
2023/06/06 01:00:32;;;;;;;11.80;5.50;;;;;;;12.65;79.94;101962.84;5072592;28;20035;-89
2023/06/06 01:02:59;;;;;;;11.57;5.40;;;;;;;12.58;80.38;101962.88;5072995;28;20043;-88
2023/06/06 01:05:24;;;;;;;9.95;4.88;;;;;;;12.56;79.04;101956.81;5072185;28;20078;-87
2023/06/06 01:07:51;;;;;;;10.43;4.57;;;;;;;12.55;78.10;101955.09;5072316;28;20036;-88
2023/06/06 01:10:16;;;;;;;9.05;4.70;;;;;;;12.55;77.82;101963.78;5073044;28;20116;-88
2023/06/06 01:13:00;;;;;;;7.20;3.90;;;;;;;12.54;78.03;101959.44;5071594;28;20104;-88
2023/06/06 01:15:54;;;;;;;8.98;4.03;;;;;;;12.48;78.31;101960.34;5072409;28;20055;-89
2023/06/06 01:18:21;;;;;;;8.02;3.97;;;;;;;12.46;78.88;101956.00;5072079;28;20052;-89
2023/06/06 01:20:48;;;;;;;7.00;4.18;;;;;;;12.43;80.25;101974.25;5072373;28;20032;-89
2023/06/06 01:23:14;;;;;;;9.80;4.63;;;;;;;12.34;81.14;101956.94;5072642;28;20048;-90
2023/06/06 01:25:41;;;;;;;11.07;4.97;;;;;;;12.25;79.84;101964.78;5072107;28;20024;-89
2023/06/06 01:28:12;;;;;;;9.50;4.80;;;;;;;12.23;78.71;101959.56;5072380;28;20082;-88
2023/06/06 01:30:42;;;;;;;10.60;5.30;;;;;;;12.17;81.04;101963.06;5071922;28;20040;-88
2023/06/06 01:33:26;;;;;;;12.85;5.90;;;;;;;12.13;79.61;101961.38;5072113;28;20035;-87
2023/06/06 01:36:10;;;;;;;11.13;5.18;;;;;;;12.07;82.20;101961.38;5072089;28;20036;-88
2023/06/06 01:38:43;;;;;;;10.02;4.90;;;;;;;12.04;79.15;101958.81;5074836;28;20028;-88
2023/06/06 01:41:10;;;;;;;7.97;4.15;;;;;;;12.02;79.67;101955.34;5076089;28;20504;-90
2023/06/06 01:43:38;;;;;;;10.88;5.20;;;;;;;11.99;81.66;101955.34;5074954;28;20048;-89
2023/06/06 01:46:05;;;;;;;10.35;5.07;;;;;;;11.87;80.05;101949.28;5075455;28;20103;-88
2023/06/06 01:48:31;;;;;;;8.88;4.63;;;;;;;11.94;80.54;101954.44;5075499;28;20496;-88
2023/06/06 01:50:56;;;;;;;7.80;4.00;;;;;;;11.89;81.82;101955.34;5076391;28;20055;-88
2023/06/06 01:53:22;;;;;;;10.60;5.20;;;;;;;11.85;81.99;101958.81;5076419;22;20400;-87
2023/06/06 01:55:48;;;;;;;10.37;4.90;;;;;;;11.81;80.28;101949.31;5035140;28;20041;-87
2023/06/06 01:58:17;;;;;;;7.28;3.78;;;;;;;11.86;79.83;101952.75;5034869;28;20026;-88
2023/06/06 02:00:43;;;;;;;8.65;4.28;;;;;;;11.81;81.32;101951.03;5034610;28;20493;-87
2023/06/06 02:03:08;;;;;;;8.40;4.37;;;;;;;11.80;80.62;101955.38;5035491;28;20064;-88
2023/06/06 02:05:33;;;;;;;6.27;3.87;;;;;;;11.78;80.19;101953.63;5035159;28;20506;-87
2023/06/06 02:07:59;;;;;;;6.57;3.80;;;;;;;11.74;80.43;101957.97;5034721;28;20056;-87
2023/06/06 02:10:24;;;;;;;6.67;4.10;;;;;;;11.73;82.04;101964.03;5035303;28;20022;-87
2023/06/06 02:12:49;;;;;;;13.50;5.50;;;;;;;11.56;83.04;101957.16;5034966;28;20152;-88
2023/06/06 02:15:15;;;;;;;9.70;4.83;;;;;;;11.58;80.87;101950.22;5034776;28;20117;-87
2023/06/06 02:17:42;;;;;;;9.30;4.80;;;;;;;11.55;81.47;101955.41;5034988;28;20378;-87
2023/06/06 02:20:11;;;;;;;6.97;3.92;;;;;;;11.52;81.67;101950.22;5034702;28;20410;-88
2023/06/06 02:22:39;;;;;;;7.45;3.60;;;;;;;11.51;81.41;101953.69;5033608;28;20033;-88
2023/06/06 02:25:05;;;;;;;8.15;4.10;;;;;;;11.48;81.52;101950.22;5034276;28;20559;-86
2023/06/06 02:27:33;;;;;;;12.80;5.73;;;;;;;11.40;84.35;101956.31;5034540;28;20056;-87
2023/06/06 02:29:58;;;;;;;9.50;4.95;;;;;;;11.38;82.57;101957.16;5034568;28;20087;-87
2023/06/06 02:32:24;;;;;;;12.13;5.83;;;;;;;11.28;84.90;101957.16;5034910;28;20477;-89
2023/06/06 02:34:50;;;;;;;13.07;5.70;;;;;;;11.21;84.62;101959.75;5033584;28;20029;-87
2023/06/06 02:37:15;;;;;;;11.10;5.10;;;;;;;11.22;83.68;101957.19;5035325;28;20100;-88
2023/06/06 02:39:40;;;;;;;10.53;4.70;;;;;;;11.23;83.17;101947.63;5033096;28;20487;-88
2023/06/06 02:42:07;;;;;;;8.80;4.23;;;;;;;11.22;82.56;101954.59;5033141;28;20041;-87
2023/06/06 02:44:33;;;;;;;;;;;;;;;11.19;83.47;101951.97;5034274;28;20424;-86
2023/06/06 02:46:58;;;;;;;8.40;3.93;;;;;;;11.18;81.97;101951.97;5035022;28;19924;-88
2023/06/06 02:49:23;;;;;;;6.27;3.60;;;;;;;11.20;82.59;101958.91;5032586;28;20075;-88
2023/06/06 02:51:49;;;;;;;6.20;3.60;;;;;;;11.19;81.40;101957.16;5034542;28;20033;-87
2023/06/06 02:54:14;;;;;;;6.27;3.53;;;;;;;11.17;81.76;101950.25;5034179;28;20080;-88
2023/06/06 02:56:40;;;;;;;9.30;4.63;;;;;;;11.12;82.90;101952.84;5032556;28;20117;-86
2023/06/06 02:59:07;;;;;;;10.87;5.03;;;;;;;11.09;84.35;101963.22;5034445;28;20021;-88
2023/06/06 03:01:35;;;;;;;8.40;4.20;;;;;;;11.06;83.85;101960.63;5032683;28;20067;-86
2023/06/06 03:04:00;;;;;;;7.72;4.00;;;;;;;11.07;82.08;101955.44;5034127;28;20029;-89
2023/06/06 03:06:28;;;;;;;9.37;4.20;;;;;;;11.02;83.16;101959.75;5034778;28;20032;-88
2023/06/06 03:08:57;;;;;;;6.85;3.97;;;;;;;10.92;82.29;101948.50;5034469;28;20036;-88
2023/06/06 03:11:23;;;;;;;5.25;3.45;;;;;;;11.03;83.41;101966.69;5033452;28;20096;-87
2023/06/06 03:13:48;;;;;;;5.07;3.10;;;;;;;11.00;81.96;101958.88;5033992;28;20116;-86
2023/06/06 03:16:16;;;;;;;8.63;4.57;;;;;;;10.97;84.07;101971.91;5033140;28;20033;-89
2023/06/06 03:18:46;;;;;;;6.78;3.60;;;;;;;10.96;82.83;101971.00;5032801;28;20033;-87
2023/06/06 03:21:12;;;;;;;5.95;3.40;;;;;;;10.96;82.43;101960.63;5033387;28;20041;-87
2023/06/06 03:23:37;;;;;;;5.20;3.03;;;;;;;10.93;82.83;101964.94;5033175;28;20032;-87
2023/06/06 03:26:03;;;;;;;6.87;3.40;;;;;;;10.93;82.87;101963.22;5033186;28;20025;-88
2023/06/06 03:28:32;;;;;;;8.25;3.70;;;;;;;10.92;83.71;101966.66;5033951;28;20180;-88
2023/06/06 03:30:57;;;;;;;5.90;3.00;;;;;;;10.91;82.09;101961.47;5033494;28;20061;-87
2023/06/06 03:33:23;;;;;;;10.10;4.93;;;;;;;10.86;84.90;101960.63;5033666;28;20108;-88
2023/06/06 03:35:48;;;;;;;8.60;4.50;;;;;;;10.88;85.38;101958.88;5033516;28;20458;-87
2023/06/06 03:38:13;;;;;;;8.93;4.20;;;;;;;10.85;83.16;101957.16;5032893;28;20363;-88
2023/06/06 03:40:39;;;;;;;6.50;3.70;;;;;;;10.87;82.16;101962.34;5033915;28;20041;-86
2023/06/06 03:43:05;;;;;;;6.43;3.70;;;;;;;10.86;84.14;101963.22;5032710;28;20045;-88
2023/06/06 03:45:31;;;;;;;9.18;4.35;;;;;;;10.88;82.56;101961.47;5032893;28;20110;-88
2023/06/06 03:47:56;;;;;;;13.10;6.30;;;;;;;10.82;83.62;101964.91;5032197;28;20113;-89
2023/06/06 03:50:21;;;;;;;8.67;4.60;;;;;;;10.80;83.34;101970.13;5032711;28;20029;-88
2023/06/06 03:52:47;;;;;;;8.33;4.33;;;;;;;10.81;84.50;101974.47;5031978;28;20022;-88
2023/06/06 03:55:13;;;;;;;7.27;3.77;;;;;;;10.80;82.41;101970.13;5032776;28;20087;-89
2023/06/06 03:57:39;;;;;;;6.10;3.50;;;;;;;10.83;82.39;101971.84;5032626;28;20053;-87
2023/06/06 04:00:13;;;;;;;6.05;3.13;;;;;;;10.87;83.21;101971.00;5032284;28;20527;-90
2023/06/06 04:02:38;;;;;;;4.63;3.15;;;;;;;10.89;83.06;101971.00;5033530;28;20033;-87
2023/06/06 04:05:05;;;;;;;4.40;3.10;;;;;;;10.90;82.72;101971.03;5033346;28;20022;-88
2023/06/06 04:07:31;;;;;;;5.32;3.10;;;;;;;10.91;83.70;101970.16;5032607;28;20021;-89
2023/06/06 04:09:57;;;;;;;7.53;3.70;;;;;;;10.87;84.13;101971.00;5033326;28;20474;-88
2023/06/06 04:12:22;;;;;;;11.10;4.90;;;;;;;10.78;85.02;101963.22;5085051;22;20052;-87
2023/06/06 04:14:48;;;;;;;7.77;4.37;;;;;;;10.79;85.32;101965.78;5092887;28;20028;-87
2023/06/06 04:17:13;;;;;;;7.97;4.20;;;;;;;10.82;84.55;101967.53;5074020;28;20021;-87
2023/06/06 04:19:39;;;;;;;6.93;3.80;;;;;;;10.84;84.42;101964.94;5072326;28;20032;-87
2023/06/06 04:22:05;;;;;;;6.17;3.67;;;;;;;10.86;84.41;101973.59;5071917;28;20020;-88
2023/06/06 04:24:30;;;;;;;5.83;3.37;;;;;;;10.87;82.67;101968.41;5073067;28;20052;-88
2023/06/06 04:26:57;;;;;;;12.17;5.73;;;;;;;10.82;86.24;101973.59;5072857;28;20070;-89
2023/06/06 04:29:23;;;;;;;10.45;4.90;;;;;;;10.86;83.27;101969.28;5072460;28;20408;-87
2023/06/06 04:31:48;;;;;;;7.50;4.20;;;;;;;10.94;82.78;101969.28;5072765;28;20020;-87
2023/06/06 04:34:13;;;;;;;7.77;4.30;;;;;;;10.90;84.79;101971.03;5073270;28;20424;-87
2023/06/06 04:36:40;;;;;;;10.40;5.30;;;;;;;10.88;86.57;101971.84;5072079;28;20035;-88
2023/06/06 04:41:57;;;;;;;8.38;4.30;;;;;;;10.93;84.46;101976.19;5072535;28;20086;-88
2023/06/06 04:44:23;;;;;;;9.50;4.15;;;;;;;10.93;85.13;101970.16;5073334;28;20060;-89
2023/06/06 04:47:00;;;;;;;7.30;4.07;;;;;;;10.89;85.46;101958.00;5073105;28;20108;-91
2023/06/06 04:49:30;;;;;;;9.73;4.22;;;;;;;11.01;83.67;101967.56;5072437;28;20476;-89
2023/06/06 04:51:59;;;;;;;7.85;4.47;;;;;;;11.07;85.09;101970.16;5072962;28;20025;-90
2023/06/06 04:54:24;;;;;;;8.65;4.80;;;;;;;11.08;85.20;101970.19;5073134;28;20358;-89
2023/06/06 04:56:51;;;;;;;7.10;4.30;;;;;;;11.13;84.16;101973.63;5072383;28;20094;-89
2023/06/06 04:59:20;;;;;;;8.32;4.30;;;;;;;11.15;85.34;101962.38;5073313;28;20069;-90
2023/06/06 05:01:46;;;;;;;11.10;5.40;;;;;;;11.22;83.25;101967.56;5072859;28;20064;-90
2023/06/06 05:04:11;;;;;;;7.50;4.18;;;;;;;11.27;83.25;101973.63;5072482;28;20100;-89
2023/06/06 05:06:37;;;;;;;13.23;5.93;;;;;;;11.28;84.95;101975.34;5072593;28;20112;-89
2023/06/06 05:09:03;;;;;;;10.40;4.73;;;;;;;11.32;84.06;101971.03;5073108;28;20025;-91
2023/06/06 05:11:29;;;;;;;8.27;4.45;;;;;;;11.31;83.39;101964.13;5075840;28;20124;-90
2023/06/06 05:13:55;;;;;;;7.60;3.70;;;;;;;11.41;82.65;101967.56;5090766;28;20020;-89
2023/06/06 05:16:23;;;;;;;8.93;4.60;;;;;;;11.49;84.01;101968.41;5076610;28;20024;-89
2023/06/06 05:18:49;;;;;;;12.77;5.90;;;;;;;11.51;83.66;101966.69;5076151;28;20107;-91
2023/06/06 05:21:15;;;;;;;9.25;4.38;;;;;;;11.58;82.82;101975.34;5076834;28;20048;-90
2023/06/06 05:23:43;;;;;;;8.80;4.37;;;;;;;11.67;82.80;101977.91;5075695;28;20420;-90
2023/06/06 05:26:08;;;;;;;11.23;5.63;;;;;;;11.69;83.34;101976.19;5076717;28;20380;-91
2023/06/06 05:28:34;;;;;;;14.40;6.83;;;;;;;11.57;84.05;101977.09;5076574;28;20028;-90
2023/06/06 05:31:00;;;;;;;16.23;7.23;;;;;;;11.57;84.13;101973.59;5076222;28;20050;-89
2023/06/06 05:33:26;;;;;;;11.23;5.43;;;;;;;11.59;83.14;101975.34;5076518;28;20024;-89
2023/06/06 05:35:53;;;;;;;15.73;7.07;;;;;;;11.59;84.12;101977.06;5076235;28;20036;-90
2023/06/06 05:38:19;;;;;;;13.15;6.25;;;;;;;11.67;83.95;101980.53;5076215;28;20025;-89
2023/06/06 05:40:44;;;;;;;11.57;5.50;;;;;;;11.71;83.48;101970.97;5089519;28;20441;-84
2023/06/06 05:43:10;;;;;;;12.10;5.73;;;;;;;11.78;83.19;101983.13;5095540;28;20035;-85
2023/06/06 05:45:35;;;;;;;11.70;5.80;;;;;;;11.84;83.56;101988.28;5092941;28;20073;-86
2023/06/06 05:48:04;;;;;;;13.77;6.27;;;;;;;11.82;83.75;101987.41;5095249;28;20384;-86
2023/06/06 05:50:30;;;;;;;14.18;6.78;;;;;;;11.86;83.40;101989.16;5095574;28;20410;-86
2023/06/06 05:52:57;;;;;;;13.27;6.35;;;;;;;11.89;83.59;101985.69;5094636;28;20031;-85
2023/06/06 05:55:33;;;;;;;12.40;6.10;;;;;;;12.01;82.94;101992.63;5095609;28;20545;-86
2023/06/06 05:57:59;;;;;;;11.68;5.63;;;;;;;12.11;83.16;101994.34;5095243;28;20032;-85
2023/06/06 06:00:26;;;;;;;9.68;4.63;;;;;;;12.17;82.15;101981.28;5094893;28;20031;-85
2023/06/06 06:02:53;;;;;;;9.73;4.82;;;;;;;12.33;82.24;101989.91;5095121;28;20035;-86
2023/06/06 06:05:21;;;;;;;;;;;;;;;12.71;82.41;101990.59;5095989;28;20384;-85
2023/06/06 06:07:47;;;;;;;8.50;4.25;;;;;;;13.17;81.43;101988.56;5094542;28;19912;-85
2023/06/06 06:10:13;;;;;;;7.50;4.10;;;;;;;14.10;79.02;101979.84;5095092;28;20020;-85
2023/06/06 06:12:38;;;;;;;6.47;3.60;;;;;;;15.64;74.40;101978.47;5094737;28;20036;-86
2023/06/06 06:15:04;;;;;;;12.23;5.60;;;;;;;16.82;66.74;101984.78;5092230;28;20544;-85
2023/06/06 06:17:30;;;;;;;15.20;7.67;;;;;;;16.48;66.10;101982.94;5094938;28;20051;-85
2023/06/06 06:19:55;;;;;;;17.43;7.13;;;;;;;16.08;67.37;101992.47;5093885;28;20039;-86
2023/06/06 06:22:22;;;;;;;14.80;6.70;;;;;;;15.67;68.07;101986.22;5095323;28;20097;-86
2023/06/06 06:24:48;;;;;;;9.38;5.50;;;;;;;15.49;69.65;101984.81;5094863;28;20024;-86
2023/06/06 06:27:13;;;;;;;8.40;4.30;;;;;;;15.56;70.83;101997.75;5094256;28;20023;-86
2023/06/06 06:29:38;;;;;;;8.53;4.20;;;;;;;15.86;70.70;101998.13;5094527;28;20016;-86
2023/06/06 06:32:13;;;;;;;4.87;3.33;;;;;;;16.18;69.19;101990.53;5095081;28;20461;-86
2023/06/06 06:34:38;;;;;;;7.22;3.85;;;;;;;16.42;67.49;101993.53;5094176;28;20055;-86
2023/06/06 06:37:19;;;;;;;8.00;4.40;;;;;;;16.47;67.61;101989.91;5094677;28;20063;-86
2023/06/06 06:39:45;;;;;;;7.28;4.00;;;;;;;16.75;66.46;102005.03;5094353;28;20068;-85
2023/06/06 06:42:11;;;;;;;;;;;;;;;16.88;63.89;102002.97;5079882;28;20123;-80
2023/06/06 06:44:52;;;;;;;12.23;5.50;;;;;;;16.56;66.30;101977.50;5074354;28;19979;-88
2023/06/06 06:47:18;;;;;;;10.13;5.40;;;;;;;16.60;66.54;101992.25;5074271;28;20028;-87
2023/06/06 06:49:50;;;;;;;10.25;5.10;;;;;;;16.61;65.54;101986.97;5073371;28;20028;-87
2023/06/06 06:52:17;;;;;;;7.57;4.22;;;;;;;16.73;67.06;101991.09;5074261;28;20385;-86
2023/06/06 06:54:53;;;;;;;7.78;4.30;;;;;;;17.00;66.33;101999.22;5074041;28;20017;-87
2023/06/06 06:57:20;;;;;;;8.18;4.43;;;;;;;17.05;66.03;102002.63;5073793;28;20469;-87
2023/06/06 06:59:45;;;;;;;8.02;4.18;;;;;;;17.14;65.42;102006.78;5073975;28;20052;-87
2023/06/06 07:02:11;;;;;;;11.27;4.85;;;;;;;17.18;63.71;102002.31;5073630;28;20024;-87
2023/06/06 07:04:36;;;;;;;8.67;4.90;;;;;;;17.09;65.05;101992.91;5073605;28;20412;-88
2023/06/06 07:07:03;;;;;;;9.47;4.63;;;;;;;17.19;65.60;101998.81;5074169;28;20099;-88
2023/06/06 07:09:28;;;;;;;9.20;4.55;;;;;;;17.20;65.23;102001.38;5073310;28;20033;-89
2023/06/06 07:11:53;;;;;;;8.43;4.57;;;;;;;17.39;64.72;102006.19;5092891;28;20047;-87
2023/06/06 07:14:19;;;;;;;13.00;6.53;;;;;;;17.21;63.84;101995.22;5094211;28;20436;-88
2023/06/06 07:16:48;;;;;;;12.33;5.90;;;;;;;17.23;63.97;102001.31;5093363;28;20020;-88
2023/06/06 07:19:13;;;;;;;13.52;5.88;;;;;;;17.19;61.96;102006.66;5094422;28;20020;-88
2023/06/06 07:21:39;;;;;;;9.63;4.73;;;;;;;17.23;65.08;101992.56;5094119;28;20507;-88
2023/06/06 07:24:05;;;;;;;8.27;4.27;;;;;;;17.48;64.28;101997.19;5093720;28;20495;-89
2023/06/06 07:26:33;;;;;;;8.45;4.50;;;;;;;17.64;63.75;101993.28;5079907;28;20020;-89
2023/06/06 07:28:58;;;;;;;9.57;4.90;;;;;;;17.68;62.95;102002.78;5085057;28;20035;-90
2023/06/06 07:31:24;;;;;;;9.27;4.60;;;;;;;17.68;62.61;102002.78;5090175;28;20012;-90
2023/06/06 07:33:50;;;;;;;7.85;4.47;;;;;;;17.79;62.82;101997.25;5073784;28;20024;-90
2023/06/06 07:36:15;;;;;;;6.53;4.00;;;;;;;17.86;62.72;101990.06;5073589;28;20028;-89
2023/06/06 07:38:40;;;;;;;6.73;3.87;;;;;;;17.98;63.50;101994.13;5072769;28;20029;-90
2023/06/06 07:41:08;;;;;;;9.17;5.20;;;;;;;18.01;60.77;101986.16;5074115;28;20032;-93
2023/06/06 07:43:33;;;;;;;12.40;6.25;;;;;;;17.71;61.13;101991.34;5072827;28;20035;-88
2023/06/06 07:45:59;;;;;;;10.70;5.47;;;;;;;17.59;62.26;101982.91;5073411;28;20119;-90
2023/06/06 07:48:25;;;;;;;10.38;5.20;;;;;;;17.60;62.86;101984.63;5074690;28;20111;-90
2023/06/06 07:50:50;;;;;;;7.67;4.23;;;;;;;17.96;61.83;101982.78;5073811;28;20120;-89
2023/06/06 07:53:16;;;;;;;8.57;4.67;;;;;;;17.93;60.90;101986.34;5073124;28;20028;-89
2023/06/06 07:55:43;;;;;;;10.90;5.75;;;;;;;17.90;61.58;101976.81;5074201;28;20078;-89
2023/06/06 07:58:11;;;;;;;11.80;5.60;;;;;;;17.86;60.74;101985.66;5073769;28;20020;-90
2023/06/06 08:00:39;;;;;;;10.38;5.50;;;;;;;17.88;61.31;101983.00;5073138;28;20028;-89
2023/06/06 08:03:07;;;;;;;12.27;6.15;;;;;;;17.67;61.33;101987.06;5073771;28;20025;-90
2023/06/06 08:05:33;;;;;;;10.00;4.97;;;;;;;17.79;60.84;101976.25;5073065;28;20090;-89
2023/06/06 08:07:59;;;;;;;;;;;;;;;17.87;61.16;101981.28;5073521;28;20033;-90
2023/06/06 08:10:24;;;;;;;7.18;3.90;;;;;;;17.98;62.02;101973.13;5073634;28;19912;-89
2023/06/06 08:12:52;;;;;;;8.37;4.00;;;;;;;18.24;61.19;101980.25;5072101;28;20048;-90
2023/06/06 08:15:21;;;;;;;10.30;5.40;;;;;;;18.26;60.01;101956.56;5073666;28;20029;-89
2023/06/06 08:17:47;;;;;;;7.75;4.55;;;;;;;18.32;61.05;101974.75;5073179;28;20028;-89
2023/06/06 08:20:12;;;;;;;5.97;3.63;;;;;;;18.58;61.15;101976.59;5072620;28;20032;-90
2023/06/06 08:22:51;;;;;;;4.57;3.60;;;;;;;18.80;60.33;101978.56;5073248;28;20027;-89
2023/06/06 08:25:28;;;;;;;11.23;5.30;;;;;;;18.92;58.34;101965.00;5073117;28;20098;-90
2023/06/06 08:27:53;;;;;;;11.55;5.00;;;;;;;18.88;59.08;101980.94;5072702;28;20024;-90
2023/06/06 08:30:21;;;;;;;10.97;4.83;;;;;;;18.96;57.30;101986.88;5073513;28;20496;-83
2023/06/06 08:32:46;;;;;;;10.95;5.43;;;;;;;19.02;57.42;101977.91;5072742;28;20051;-88
2023/06/06 08:35:11;;;;;;;8.47;4.87;;;;;;;19.05;58.06;101986.56;5072775;28;20052;-83
2023/06/06 08:37:37;;;;;;;14.10;6.43;;;;;;;18.94;56.05;101978.16;5072680;28;20476;-87
2023/06/06 08:40:06;;;;;;;8.70;5.00;;;;;;;19.00;58.90;101977.09;5074060;28;20029;-92
2023/06/06 08:42:34;;;;;;;7.60;4.13;;;;;;;19.18;58.41;101973.00;5072595;28;20016;-91
2023/06/06 08:45:00;;;;;;;6.75;3.55;;;;;;;19.40;58.52;101973.97;5073804;28;20036;-93
2023/06/06 08:47:26;;;;;;;10.90;5.45;;;;;;;19.41;55.78;101980.09;5075009;28;20024;-90
2023/06/06 08:49:52;;;;;;;13.38;6.78;;;;;;;18.96;56.97;101971.06;5076838;28;20033;-92
2023/06/06 08:52:20;;;;;;;8.93;4.85;;;;;;;19.04;58.20;101971.69;5077570;28;20031;-91
2023/06/06 08:54:48;;;;;;;12.63;6.10;;;;;;;19.05;56.30;101977.78;5076524;28;20500;-91
2023/06/06 08:57:14;;;;;;;13.38;5.88;;;;;;;19.04;57.26;101970.81;5077738;28;20063;-91
2023/06/06 08:59:41;;;;;;;11.93;5.40;;;;;;;19.12;57.56;101972.28;5076824;28;20541;-90
2023/06/06 09:02:06;;;;;;;8.68;5.00;;;;;;;19.30;57.60;101972.59;5077938;28;20481;-92
2023/06/06 09:04:33;;;;;;;10.57;5.30;;;;;;;19.47;56.98;101972.00;5095958;28;20054;-92
2023/06/06 09:07:04;;;;;;;8.98;4.47;;;;;;;19.63;57.59;101968.81;5097678;28;20032;-93
2023/06/06 09:09:33;;;;;;;9.25;4.57;;;;;;;19.83;56.91;101962.84;5097242;28;20032;-92
2023/06/06 09:11:59;;;;;;;7.53;4.13;;;;;;;20.08;56.45;101973.34;5095991;28;20446;-91
2023/06/06 09:14:44;;;;;;;6.60;4.00;;;;;;;20.30;55.68;101970.78;5097268;28;20020;-92
2023/06/06 09:17:29;;;;;;;11.18;5.75;;;;;;;20.25;54.62;101966.59;5080905;28;20046;-92
2023/06/06 09:19:58;;;;;;;8.30;4.20;;;;;;;20.35;55.98;101963.53;5096913;28;20016;-92
2023/06/06 09:22:40;;;;;;;11.77;5.30;;;;;;;20.53;53.15;101976.94;5097593;28;20108;-90
2023/06/06 09:25:06;;;;;;;11.23;5.20;;;;;;;20.59;54.71;101973.19;5097536;28;20016;-89
2023/06/06 09:27:43;;;;;;;7.63;4.40;;;;;;;20.70;55.00;101963.06;5100963;28;20024;-91
2023/06/06 09:30:27;;;;;;;6.47;3.58;;;;;;;20.92;55.55;101960.44;5098573;28;20031;-92
2023/06/06 09:33:01;;;;;;;4.38;3.20;;;;;;;21.18;54.34;101958.50;5099429;28;20517;-85
2023/06/06 09:35:41;;;;;;;4.88;3.20;;;;;;;21.42;54.26;101961.84;5096218;28;20035;-83
2023/06/06 09:38:08;;;;;;;10.13;4.22;;;;;;;21.63;52.77;101958.38;5095167;28;20420;-85
2023/06/06 09:40:43;;;;;;;8.60;4.22;;;;;;;21.64;52.66;101953.00;5096064;28;20024;-91
2023/06/06 09:43:09;;;;;;;11.63;5.90;;;;;;;21.44;50.55;101952.06;5096331;28;20032;-87
2023/06/06 09:45:34;;;;;;;12.23;5.57;;;;;;;21.34;51.01;101948.13;5094746;28;20278;-87
2023/06/06 09:48:00;;;;;;;10.50;5.50;;;;;;;21.28;51.37;101951.00;5096117;28;20353;-87
2023/06/06 09:50:25;;;;;;;7.47;4.30;;;;;;;21.40;53.05;101945.19;5097162;28;20016;-91
2023/06/06 09:52:51;;;;;;;8.57;4.10;;;;;;;21.62;52.94;101946.09;5095642;28;20081;-88
2023/06/06 09:55:18;;;;;;;6.73;4.03;;;;;;;21.84;51.19;101946.84;5096505;28;20021;-94
2023/06/06 09:57:47;;;;;;;7.00;4.15;;;;;;;22.00;50.84;101952.28;5096029;28;20353;-93
2023/06/06 10:00:14;;;;;;;8.63;3.90;;;;;;;22.20;49.83;101943.41;5096029;28;20028;-95
2023/06/06 10:02:42;;;;;;;11.75;6.10;;;;;;;22.08;48.56;101943.13;5096652;28;20032;-94
2023/06/06 10:05:12;;;;;;;7.75;4.10;;;;;;;22.23;51.56;101942.41;5096578;28;20039;-95
2023/06/06 10:07:44;;;;;;;4.82;3.17;;;;;;;22.54;51.38;101940.13;5097124;28;20472;-96
2023/06/06 10:10:11;;;;;;;8.90;4.45;;;;;;;22.70;48.63;101938.41;5096799;28;20529;-93
2023/06/06 10:12:38;;;;;;;9.10;4.80;;;;;;;22.68;49.08;101941.16;5095718;28;20044;-96
2023/06/06 10:15:05;;;;;;;6.32;3.95;;;;;;;22.72;49.78;101935.72;5078908;28;20024;-95
2023/06/06 10:17:34;;;;;;;7.60;3.90;;;;;;;22.78;49.67;101936.28;5076973;28;20033;-95
2023/06/06 10:20:06;;;;;;;11.20;4.97;;;;;;;22.83;47.82;101941.34;5076590;28;20032;-94
2023/06/06 10:22:53;;;;;;;6.13;3.55;;;;;;;22.86;48.68;101935.03;5077977;28;20479;-95
2023/06/06 10:25:19;;;;;;;5.28;3.33;;;;;;;23.00;48.95;101927.25;5076497;28;20485;-94
2023/06/06 10:28:18;;;;;;;7.78;4.30;;;;;;;23.18;48.78;101932.53;5090696;28;20051;-95
2023/06/06 10:30:57;;;;;;;6.28;3.58;;;;;;;23.20;49.35;101915.66;5095761;28;20127;-96
2023/06/06 10:33:44;;;;;;;6.15;3.70;;;;;;;23.46;47.83;101937.28;5097196;28;20030;-95
2023/06/06 10:39:41;;;;;;;6.50;3.10;;;;;;;23.84;47.80;101923.78;5055298;28;20482;-94
2023/06/06 10:42:15;;;;;;;6.90;4.00;;;;;;;23.90;46.63;101925.25;5057966;28;20027;-96
2023/06/06 10:45:09;;;;;;;6.45;4.38;;;;;;;23.87;44.28;101930.69;5096253;28;20017;-95
2023/06/06 10:48:00;;;;;;;11.25;5.40;;;;;;;23.59;46.43;101910.97;5095406;28;20031;-95
2023/06/06 10:50:31;;;;;;;8.20;4.13;;;;;;;23.63;46.63;101925.78;5096137;28;20027;-94
2023/06/06 10:53:06;;;;;;;5.40;3.60;;;;;;;23.89;44.69;101929.66;5094973;28;20052;-92
2023/06/06 10:55:32;;;;;;;5.93;3.58;;;;;;;24.00;46.56;101933.56;5087982;28;20495;-95
2023/06/06 10:58:13;;;;;;;8.48;4.40;;;;;;;23.99;44.68;101918.59;5075337;28;20529;-92
2023/06/06 11:00:44;;;;;;;6.65;3.40;;;;;;;24.16;47.10;101922.94;5075359;28;20035;-94
2023/06/06 11:03:32;;;;;;;8.95;4.65;;;;;;;24.49;45.63;101928.16;5074401;28;20115;-94
2023/06/06 11:06:11;;;;;;;8.02;3.83;;;;;;;24.51;43.82;101913.00;5075485;28;20032;-94
2023/06/06 11:09:00;;;;;;;8.55;4.45;;;;;;;24.66;44.76;101919.22;5074716;28;20029;-94
2023/06/06 11:11:32;;;;;;;9.63;3.95;;;;;;;24.73;43.63;101906.47;5086528;28;20484;-85
2023/06/06 11:14:06;;;;;;;7.22;4.07;;;;;;;24.59;44.17;101904.63;5094889;28;20024;-87
2023/06/06 11:16:40;;;;;;;8.70;4.25;;;;;;;24.66;43.75;101911.25;5093254;28;20480;-85
2023/06/06 11:19:11;;;;;;;5.32;3.22;;;;;;;24.86;44.07;101901.28;5093740;28;20106;-86
2023/06/06 11:21:37;;;;;;;10.02;4.38;;;;;;;24.87;43.02;101896.84;5074510;28;20029;-87
2023/06/06 11:24:03;;;;;;;5.55;3.78;;;;;;;24.83;43.02;101898.81;5073711;28;20479;-92
2023/06/06 11:26:29;;;;;;;9.75;4.63;;;;;;;24.72;42.31;101901.25;5075032;28;20020;-92
2023/06/06 11:28:55;;;;;;;6.77;4.00;;;;;;;24.50;43.30;101897.16;5074164;28;20032;-85
2023/06/06 11:31:23;;;;;;;;;;;;;;;24.76;42.97;101894.81;5075458;28;20295;-89
2023/06/06 11:33:48;;;;;;;3.90;3.13;;;;;;;24.96;42.89;101896.31;5075994;28;19919;-88
2023/06/06 11:36:14;;;;;;;5.90;3.60;;;;;;;25.24;42.21;101895.50;5075081;28;21608;-87